Arvada, CO

11:32 AM MST on December 19, 2014 (GMT -0700)
North Arvada | Change Station
CLOSE
Current Station
Personal Weather Station
Location: Arvada, CO
Elevation: 5472 ft
Nearby Weather Stations

Elev 5472 ft 39.82 °N, 105.07 °W | Updated 0 second ago

Clear
Clear
41.8 °F
Feels Like 42 °F
N
1.0
Wind Variable Wind from SSE
Gusts 5.0 mph

Today
High -- | Low -- °F
--% Chance of Precip.
Yesterday
High -- | Low -- °F
Precip. -- in
7:17 AM 4:38 PM
Waning Crescent, 7% visible
Pressure 30.10 in
Visibility 50.0 miles
Clouds Few 12000 ft
Windchill 42 °F
Dew Point 19 °F
Humidity 39%
Rainfall 0.00 in
Snow Depth Not available.
UV 0.0 out of 12
Pollen .10 out of 12
Air Quality Not available.
Flu Activity Not available.
METAR KBJC 191646Z 00000KT 50SM FEW120 02/M04 A3010

More Conditions Fewer Conditions

Pressure 30.10 in
Visibility 50.0 miles
Clouds Few 12000 ft
Windchill 42 °F
Dew Point 19 °F
Humidity 39%
Rainfall 0.00 in
Snow Depth Not available.
UV 0.0 out of 12
Pollen .10 out of 12
Air Quality Not available.
Flu Activity Not available.
METAR KBJC 191646Z 00000KT 50SM FEW120 02/M04 A3010

More Conditions Fewer Conditions

10-Day Weather Forecast

Almanac

Astronomy

Dec. 19, 2014 Rise Set
Actual Time
Civil Twilight
Nautical Twilight
Astronomical Twilight
Moon
Length of Visible Light
Length of Day
Tomorrow will be .
, % of the Moon is Illuminated

Today's Extremes

State Highs State Lows

Community

WunderPhotos

Upload Photos

1,779,020 photos uploaded!

WunderBlogs® & News

Nearby

Air Quality

  Air Quality AQ Index Pollutant
Not available.

Snow Depth

Station Depth Elevation

Earthquake Activity

City Distance Mag. Time & Date
Minimum magnitude displayed is 2.5.

Coastal Water Temperatures

Place Temperature

Nearby Weather Stations